Time;durP1;ratioP1;P1;durP2;ratioP2;P2;SDS_P1;SDS_P2;PMS_P1;PMS_P2;Temp;Humidity;BMP_temperature;BMP_pressure;BME280_temperature;BME280_humidity;BME280_pressure;Samples;Min_cycle;Max_cycle;Signal;HPM_P1;HPM_P2
2022/12/18 00:01:35;;;;;;;115.00;32.67;;;;;;;-4.06;100.00;102661.66;5073480;28;20028;-39
2022/12/18 00:04:05;;;;;;;125.50;34.28;;;;;;;-4.07;100.00;102665.22;5072093;28;20468;-42
2022/12/18 00:06:32;;;;;;;134.90;37.25;;;;;;;-4.03;100.00;102669.47;5073400;28;20119;-40
2022/12/18 00:08:58;;;;;;;134.77;34.42;;;;;;;-4.05;100.00;102677.41;5073106;28;20494;-41
2022/12/18 00:11:28;;;;;;;130.57;35.97;;;;;;;-3.97;100.00;102682.47;5073445;28;20104;-40
2022/12/18 00:13:55;;;;;;;132.73;34.83;;;;;;;-3.86;100.00;102680.38;5073076;28;20028;-41
2022/12/18 00:16:22;;;;;;;133.67;35.83;;;;;;;-3.83;100.00;102669.75;5073150;28;20066;-40
2022/12/18 00:18:52;;;;;;;125.97;35.65;;;;;;;-3.88;100.00;102669.03;5071635;28;20310;-39
2022/12/18 00:21:18;;;;;;;128.95;34.63;;;;;;;-3.86;100.00;102669.84;5073195;28;20021;-39
2022/12/18 00:23:44;;;;;;;129.32;34.78;;;;;;;-3.71;100.00;102670.31;5073095;28;20543;-40
2022/12/18 00:26:16;;;;;;;125.78;32.65;;;;;;;-3.77;100.00;102668.72;5072937;28;20029;-40
2022/12/18 00:28:42;;;;;;;135.32;36.25;;;;;;;-3.85;100.00;102661.03;5072741;28;20455;-40
2022/12/18 00:31:14;;;;;;;123.72;34.65;;;;;;;-3.78;100.00;102667.00;5073223;28;20392;-40
2022/12/18 00:33:39;;;;;;;123.25;34.45;;;;;;;-3.85;100.00;102666.31;5072846;28;20032;-40
2022/12/18 00:36:07;;;;;;;107.72;31.30;;;;;;;-3.88;100.00;102661.16;5072880;28;20032;-39
2022/12/18 00:38:33;;;;;;;109.55;32.88;;;;;;;-3.89;100.00;102667.31;5072837;28;20025;-40
2022/12/18 00:40:59;;;;;;;123.75;34.90;;;;;;;-3.88;100.00;102660.28;5072608;28;20028;-40
2022/12/18 00:43:24;;;;;;;126.30;34.30;;;;;;;-3.91;100.00;102671.75;5072718;28;20027;-40
2022/12/18 00:45:50;;;;;;;116.30;34.22;;;;;;;-4.03;100.00;102677.34;5072677;28;20033;-40
2022/12/18 00:48:15;;;;;;;109.93;31.55;;;;;;;-4.07;100.00;102673.97;5072513;28;20016;-40
2022/12/18 00:50:40;;;;;;;121.57;34.42;;;;;;;-4.12;100.00;102677.63;5072033;28;20028;-40
2022/12/18 00:53:06;;;;;;;111.88;32.78;;;;;;;-4.04;100.00;102675.63;5072327;28;20430;-40
2022/12/18 00:55:31;;;;;;;125.80;32.90;;;;;;;-4.11;100.00;102680.19;5072273;28;20457;-40
2022/12/18 00:57:57;;;;;;;125.93;34.72;;;;;;;-4.13;100.00;102675.88;5072844;28;20138;-39
2022/12/18 01:00:22;;;;;;;109.45;31.77;;;;;;;-4.15;100.00;102682.97;5072397;28;20021;-41
2022/12/18 01:02:48;;;;;;;123.22;35.40;;;;;;;-4.11;100.00;102679.34;5072241;28;20029;-41
2022/12/18 01:05:13;;;;;;;112.82;32.47;;;;;;;-4.08;100.00;102676.63;5071871;28;20029;-40
2022/12/18 01:07:39;;;;;;;115.75;33.80;;;;;;;-4.11;100.00;102672.31;5070911;28;20017;-41
2022/12/18 01:10:05;;;;;;;117.80;31.60;;;;;;;-4.05;100.00;102673.94;5071936;28;20117;-41
2022/12/18 01:12:31;;;;;;;127.28;34.78;;;;;;;-4.14;100.00;102674.16;5070697;28;20047;-41
2022/12/18 01:14:56;;;;;;;119.43;33.70;;;;;;;-4.08;100.00;102679.25;5071875;28;20028;-40
2022/12/18 01:17:22;;;;;;;102.43;32.42;;;;;;;-3.96;100.00;102681.53;5072439;28;20035;-40
2022/12/18 01:19:47;;;;;;;120.30;33.05;;;;;;;-4.08;100.00;102684.50;5071850;28;20246;-41
2022/12/18 01:22:12;;;;;;;132.57;34.60;;;;;;;-4.16;100.00;102691.75;5071838;28;20187;-40
2022/12/18 01:24:38;;;;;;;111.30;31.55;;;;;;;-4.17;100.00;102674.25;5071949;28;20029;-40
2022/12/18 01:27:03;;;;;;;121.32;32.88;;;;;;;-4.07;100.00;102671.31;5071944;28;20064;-39
2022/12/18 01:29:29;;;;;;;122.80;33.13;;;;;;;-4.10;100.00;102674.03;5070777;28;20039;-38
2022/12/18 01:31:55;;;;;;;113.95;33.78;;;;;;;-4.08;100.00;102681.88;5071953;28;20033;-39
2022/12/18 01:34:21;;;;;;;108.78;32.05;;;;;;;-4.23;100.00;102686.66;5071537;28;20029;-40
2022/12/18 01:36:46;;;;;;;105.35;30.77;;;;;;;-4.17;100.00;102690.03;5070995;28;20025;-42
2022/12/18 01:39:13;;;;;;;115.25;32.63;;;;;;;-4.22;100.00;102684.88;5071443;28;20067;-39
2022/12/18 01:45:02;;;;;;;114.15;30.58;;;;;;;-4.14;100.00;102689.94;5071814;28;20039;-40
2022/12/18 01:47:44;;;;;;;115.38;30.33;;;;;;;-4.14;100.00;102703.09;5071300;28;20384;-40
2022/12/18 01:50:22;;;;;;;130.18;34.00;;;;;;;-4.10;100.00;102710.00;5071302;28;20025;-41
2022/12/18 01:52:56;;;;;;;117.60;32.75;;;;;;;-4.10;100.00;102713.50;5071446;28;20383;-40
2022/12/18 01:55:24;;;;;;;128.88;33.97;;;;;;;-4.13;100.00;102718.84;5071206;28;20040;-40
2022/12/18 01:57:51;;;;;;;;;;;;;;;-4.30;100.00;102710.53;5071996;28;20425;-40
2022/12/18 02:00:18;;;;;;;109.60;31.20;;;;;;;-4.28;100.00;102704.31;5069700;28;19912;-39
2022/12/18 02:02:45;;;;;;;111.53;31.40;;;;;;;-4.26;100.00;102720.06;5071243;28;20059;-40
2022/12/18 02:05:13;;;;;;;117.00;31.20;;;;;;;-4.22;100.00;102714.66;5069298;28;20043;-39
2022/12/18 02:08:04;;;;;;;126.03;33.08;;;;;;;-4.17;100.00;102708.44;5069412;28;20077;-41
2022/12/18 02:10:40;;;;;;;123.03;32.72;;;;;;;-4.21;100.00;102705.88;5069614;28;20039;-39
2022/12/18 02:13:25;;;;;;;107.22;30.77;;;;;;;-4.15;100.00;102714.53;5069875;28;20051;-41
2022/12/18 02:16:05;;;;;;;124.88;33.15;;;;;;;-4.12;100.00;102714.44;5069184;28;20052;-40
2022/12/18 02:18:37;;;;;;;124.65;33.75;;;;;;;-4.12;100.00;102704.78;5070874;28;20055;-41
2022/12/18 02:21:05;;;;;;;103.72;31.73;;;;;;;-4.14;100.00;102705.72;5070594;28;20383;-39
2022/12/18 02:23:46;;;;;;;118.97;32.08;;;;;;;-4.13;100.00;102712.69;5070591;28;20020;-41
2022/12/18 02:26:22;;;;;;;112.95;31.23;;;;;;;-4.20;100.00;102707.59;5070839;28;20071;-41
2022/12/18 02:28:53;;;;;;;115.10;31.10;;;;;;;-4.34;100.00;102708.88;5069319;28;20040;-40
2022/12/18 02:31:22;;;;;;;116.20;32.95;;;;;;;-4.45;100.00;102706.50;5069468;28;20031;-41
2022/12/18 02:33:49;;;;;;;104.55;29.75;;;;;;;-4.49;100.00;102704.88;5069569;28;20040;-41
2022/12/18 02:36:16;;;;;;;126.50;33.90;;;;;;;-4.47;100.00;102703.94;5069794;28;20087;-41
2022/12/18 02:38:42;;;;;;;126.87;32.13;;;;;;;-4.42;100.00;102696.81;5069715;28;20468;-41
2022/12/18 02:41:07;;;;;;;118.40;32.80;;;;;;;-4.47;100.00;102687.31;5068406;28;20032;-41
2022/12/18 02:43:33;;;;;;;130.48;33.30;;;;;;;-4.42;100.00;102680.19;5069657;28;20029;-40
2022/12/18 02:46:00;;;;;;;107.60;29.98;;;;;;;-4.42;100.00;102677.56;5070598;28;20020;-41
2022/12/18 02:48:35;;;;;;;112.47;31.42;;;;;;;-4.51;100.00;102680.41;5069118;28;20021;-41
2022/12/18 02:51:32;;;;;;;120.88;31.27;;;;;;;-4.53;100.00;102672.56;5070496;28;20064;-40
2022/12/18 02:54:11;;;;;;;113.13;30.77;;;;;;;-4.47;100.00;102663.66;5070737;28;20040;-40
2022/12/18 02:56:50;;;;;;;114.35;31.20;;;;;;;-4.43;100.00;102662.66;5069998;28;20030;-42
2022/12/18 02:59:22;;;;;;;110.35;31.75;;;;;;;-4.44;100.00;102655.69;5069438;28;20062;-40
2022/12/18 03:02:10;;;;;;;107.50;30.98;;;;;;;-4.46;100.00;102657.50;5069153;28;20032;-40
2022/12/18 03:04:57;;;;;;;102.93;31.05;;;;;;;-4.52;100.00;102649.78;5069295;28;20487;-39
2022/12/18 03:07:28;;;;;;;119.93;31.80;;;;;;;-4.56;100.00;102645.50;5070677;28;20028;-40
2022/12/18 03:09:53;;;;;;;108.05;30.23;;;;;;;-4.55;100.00;102647.25;5069737;28;20040;-40
2022/12/18 03:12:32;;;;;;;110.20;29.50;;;;;;;-4.50;100.00;102651.47;5070449;28;20247;-41
2022/12/18 03:15:11;;;;;;;107.95;30.23;;;;;;;-4.38;100.00;102645.00;5069231;28;20024;-38
2022/12/18 03:17:39;;;;;;;105.10;31.52;;;;;;;-4.35;100.00;102639.66;5069919;28;20395;-39
2022/12/18 03:20:09;;;;;;;110.75;31.98;;;;;;;-4.31;100.00;102641.31;5069756;28;20111;-40
2022/12/18 03:22:35;;;;;;;116.10;31.90;;;;;;;-4.38;100.00;102645.00;5070354;28;20086;-40
2022/12/18 03:25:03;;;;;;;104.13;31.27;;;;;;;-4.47;100.00;102637.38;5068976;28;20020;-40
2022/12/18 03:27:30;;;;;;;114.13;32.78;;;;;;;-4.46;100.00;102632.06;5069419;28;20052;-40
2022/12/18 03:30:07;;;;;;;102.20;29.55;;;;;;;-4.48;100.00;102638.28;5069768;28;20024;-40
2022/12/18 03:32:39;;;;;;;110.97;31.30;;;;;;;-4.54;100.00;102638.44;5063807;28;20392;-40
2022/12/18 03:35:05;;;;;;;108.47;30.92;;;;;;;-4.56;100.00;102632.34;5049120;28;20021;-40
2022/12/18 03:37:32;;;;;;;112.25;30.83;;;;;;;-4.54;100.00;102638.44;5047557;28;20126;-39
2022/12/18 03:39:58;;;;;;;112.55;32.50;;;;;;;-4.50;100.00;102634.81;5048776;28;20065;-38
2022/12/18 03:42:29;;;;;;;110.85;30.67;;;;;;;-4.55;100.00;102636.72;5049929;28;20021;-39
2022/12/18 03:45:04;;;;;;;117.50;30.60;;;;;;;-4.54;100.00;102633.19;5048497;28;20117;-40
2022/12/18 03:47:39;;;;;;;101.50;29.52;;;;;;;-4.59;100.00;102640.31;5049908;28;20051;-39
2022/12/18 03:50:21;;;;;;;92.88;26.17;;;;;;;-4.67;100.00;102636.13;5048652;28;20090;-40
2022/12/18 03:53:24;;;;;;;83.50;26.35;;;;;;;-4.62;100.00;102646.53;5050059;28;20035;-40
2022/12/18 03:55:50;;;;;;;81.60;25.13;;;;;;;-4.81;100.00;102643.50;5052336;28;20081;-40
2022/12/18 03:58:19;;;;;;;83.57;24.80;;;;;;;-4.82;100.00;102638.28;5051965;28;20028;-40
2022/12/18 04:00:45;;;;;;;84.47;24.95;;;;;;;-4.79;100.00;102646.97;5052115;28;20573;-40
2022/12/18 04:03:11;;;;;;;85.10;25.75;;;;;;;-4.83;100.00;102637.44;5052201;28;20112;-40
2022/12/18 04:05:37;;;;;;;88.90;26.05;;;;;;;-4.96;100.00;102633.38;5051871;28;20488;-40
2022/12/18 04:08:03;;;;;;;97.63;27.13;;;;;;;-5.03;100.00;102621.28;5051951;28;20033;-40
2022/12/18 04:10:28;;;;;;;83.53;25.10;;;;;;;-5.00;100.00;102634.34;5052135;28;20021;-40
2022/12/18 04:12:56;;;;;;;85.85;25.05;;;;;;;-5.04;100.00;102637.97;5053307;28;20462;-39
2022/12/18 04:15:21;;;;;;;86.47;26.80;;;;;;;-5.03;100.00;102635.28;5053288;28;20063;-38
2022/12/18 04:17:48;;;;;;;90.95;26.75;;;;;;;-5.14;100.00;102632.06;5053042;28;20468;-40
2022/12/18 04:20:14;;;;;;;84.82;25.30;;;;;;;-5.18;100.00;102635.69;5052819;28;20341;-38
2022/12/18 04:22:39;;;;;;;88.70;26.75;;;;;;;-5.13;100.00;102633.81;5052920;28;20071;-40
2022/12/18 04:25:05;;;;;;;88.20;26.85;;;;;;;-5.14;100.00;102634.69;5052803;28;20029;-40
2022/12/18 04:27:30;;;;;;;88.30;26.33;;;;;;;-5.18;100.00;102644.41;5052775;28;20060;-40
2022/12/18 04:29:55;;;;;;;91.95;26.92;;;;;;;-5.19;100.00;102639.19;5051619;28;20070;-40
2022/12/18 04:32:21;;;;;;;81.90;26.80;;;;;;;-5.20;100.00;102637.47;5052994;28;20039;-39
2022/12/18 04:34:46;;;;;;;85.93;26.40;;;;;;;-5.23;100.00;102635.78;5052890;28;20021;-40
2022/12/18 04:37:11;;;;;;;86.15;26.77;;;;;;;-5.22;100.00;102640.13;5052833;28;20025;-40
2022/12/18 04:39:37;;;;;;;83.97;26.20;;;;;;;-5.14;100.00;102643.41;5052583;28;20082;-40
2022/12/18 04:42:02;;;;;;;86.90;26.00;;;;;;;-5.09;100.00;102649.41;5052690;28;20194;-40
2022/12/18 04:44:27;;;;;;;93.50;27.40;;;;;;;-5.15;100.00;102646.97;5052620;28;20033;-39
2022/12/18 04:46:53;;;;;;;84.57;26.23;;;;;;;-5.19;100.00;102653.16;5052611;28;20044;-40
2022/12/18 04:49:18;;;;;;;87.95;26.13;;;;;;;-5.24;100.00;102647.19;5052459;28;20044;-40
2022/12/18 04:51:43;;;;;;;91.47;26.67;;;;;;;-5.31;100.00;102642.97;5051016;28;20031;-40
2022/12/18 04:54:09;;;;;;;86.05;24.58;;;;;;;-5.35;100.00;102644.78;5052743;28;20075;-40
2022/12/18 04:56:34;;;;;;;90.65;27.00;;;;;;;-5.37;100.00;102646.59;5052529;28;20033;-39
2022/12/18 04:58:59;;;;;;;80.13;26.23;;;;;;;-5.43;100.00;102635.38;5052435;28;20059;-40
2022/12/18 05:01:25;;;;;;;82.80;24.20;;;;;;;-5.51;100.00;102635.53;5052429;28;20045;-39
2022/12/18 05:03:53;;;;;;;96.85;26.17;;;;;;;-5.52;100.00;102637.31;5051588;28;20087;-40
2022/12/18 05:06:18;;;;;;;83.40;24.83;;;;;;;-5.52;100.00;102636.44;5051930;28;20021;-39
2022/12/18 05:08:44;;;;;;;86.15;25.80;;;;;;;-5.47;100.00;102638.97;5050550;28;20094;-40
2022/12/18 05:11:12;;;;;;;84.32;25.63;;;;;;;-5.45;100.00;102631.91;5052221;28;20476;-40
2022/12/18 05:13:37;;;;;;;85.68;24.85;;;;;;;-5.44;100.00;102631.03;5052885;28;20540;-40
2022/12/18 05:16:04;;;;;;;88.20;24.35;;;;;;;-5.48;100.00;102638.09;5052516;28;20112;-40
2022/12/18 05:18:31;;;;;;;84.57;26.92;;;;;;;-5.49;100.00;102632.91;5052320;28;20082;-40
2022/12/18 05:20:56;;;;;;;92.00;26.15;;;;;;;-5.40;100.00;102624.81;5052024;28;20028;-40
2022/12/18 05:23:23;;;;;;;96.45;27.42;;;;;;;-5.35;100.00;102625.56;5051897;28;20336;-38
2022/12/18 05:25:52;;;;;;;93.30;27.40;;;;;;;-5.42;100.00;102624.84;5051650;28;20380;-40
2022/12/18 05:28:17;;;;;;;83.75;27.75;;;;;;;-5.44;100.00;102621.41;5051572;28;20120;-40
2022/12/18 05:30:44;;;;;;;76.65;25.35;;;;;;;-5.47;100.00;102620.63;5051574;28;20031;-40
2022/12/18 05:33:09;;;;;;;89.95;26.00;;;;;;;-5.55;100.00;102621.66;5051637;28;20036;-39
2022/12/18 05:35:35;;;;;;;93.63;27.25;;;;;;;-5.57;100.00;102618.19;5051518;28;20025;-39
2022/12/18 05:38:00;;;;;;;80.32;24.65;;;;;;;-5.58;100.00;102621.72;5051763;28;20032;-40
2022/12/18 05:40:25;;;;;;;97.05;26.60;;;;;;;-5.53;100.00;102617.22;5051363;28;20017;-40
2022/12/18 05:42:51;;;;;;;86.10;25.73;;;;;;;-5.55;100.00;102616.41;5051565;28;20047;-40
2022/12/18 05:45:16;;;;;;;80.25;26.17;;;;;;;-5.55;100.00;102611.16;5051303;28;20116;-39
2022/12/18 05:47:42;;;;;;;83.40;24.77;;;;;;;-5.56;100.00;102611.16;5051647;28;20124;-40
2022/12/18 05:50:07;;;;;;;86.07;25.65;;;;;;;-5.61;100.00;102611.28;5051176;28;20379;-39
2022/12/18 05:52:32;;;;;;;82.57;25.38;;;;;;;-5.60;100.00;102610.38;5051336;28;20040;-40
2022/12/18 05:54:58;;;;;;;70.60;24.75;;;;;;;-5.67;100.00;102611.41;5051107;28;20052;-39
2022/12/18 05:57:24;;;;;;;76.40;24.30;;;;;;;-5.69;100.00;102614.97;5051222;28;20040;-39
2022/12/18 05:59:49;;;;;;;82.38;24.85;;;;;;;-5.67;100.00;102618.44;5051097;28;20095;-40
2022/12/18 06:02:15;;;;;;;72.72;25.25;;;;;;;-5.64;100.00;102613.97;5051108;28;20548;-40
2022/12/18 06:04:40;;;;;;;80.97;24.42;;;;;;;-5.62;100.00;102609.56;5050842;28;20070;-40
2022/12/18 06:07:05;;;;;;;85.97;26.27;;;;;;;-5.63;100.00;102604.34;5050891;28;20377;-40
2022/12/18 06:09:31;;;;;;;75.53;23.42;;;;;;;-5.62;100.00;102592.97;5050854;28;20037;-40
2022/12/18 06:11:57;;;;;;;73.30;24.23;;;;;;;-5.67;100.00;102594.81;5050943;28;20109;-40
2022/12/18 06:14:22;;;;;;;61.50;22.52;;;;;;;-5.69;100.00;102589.59;5051022;28;20211;-39
2022/12/18 06:16:51;;;;;;;74.57;24.48;;;;;;;-5.71;100.00;102580.03;5050709;28;20056;-39
2022/12/18 06:19:16;;;;;;;75.10;23.33;;;;;;;-5.71;100.00;102580.03;5050991;28;20074;-39
2022/12/18 06:21:42;;;;;;;70.18;24.63;;;;;;;-5.71;100.00;102583.56;5050654;28;20028;-39
2022/12/18 06:24:07;;;;;;;75.50;23.33;;;;;;;-5.72;100.00;102584.44;5050830;28;20130;-40
2022/12/18 06:26:33;;;;;;;69.60;24.45;;;;;;;-5.71;100.00;102580.94;5050526;28;20083;-40
2022/12/18 06:28:58;;;;;;;63.30;23.10;;;;;;;-5.66;100.00;102571.19;5050680;28;20558;-41
2022/12/18 06:31:23;;;;;;;65.63;22.67;;;;;;;-5.62;100.00;102575.44;5050588;28;20025;-41
2022/12/18 06:33:49;;;;;;;69.05;23.67;;;;;;;-5.65;100.00;102569.44;5050645;28;20498;-40
2022/12/18 06:36:14;;;;;;;65.15;23.27;;;;;;;-5.71;100.00;102570.44;5050427;28;20030;-41
2022/12/18 06:38:42;;;;;;;62.72;22.67;;;;;;;-5.71;100.00;102565.19;5050484;28;20032;-41
2022/12/18 06:41:19;;;;;;;64.75;23.48;;;;;;;-5.68;100.00;102567.75;5050178;28;20484;-40
2022/12/18 06:43:44;;;;;;;58.67;21.40;;;;;;;-5.76;100.00;102553.94;5050561;28;20086;-41
2022/12/18 06:46:11;;;;;;;61.35;22.48;;;;;;;-5.72;100.00;102552.94;5050088;28;20333;-40
2022/12/18 06:48:36;;;;;;;64.70;22.63;;;;;;;-5.75;100.00;102543.41;5050291;28;20029;-40
2022/12/18 06:51:02;;;;;;;66.80;23.17;;;;;;;-5.77;100.00;102541.72;5050191;28;20437;-40
2022/12/18 06:53:27;;;;;;;64.72;23.90;;;;;;;-5.82;100.00;102543.56;5049036;28;20036;-41
2022/12/18 06:56:06;;;;;;;63.38;21.75;;;;;;;-5.83;100.00;102541.84;5049955;28;20102;-40
2022/12/18 06:58:31;;;;;;;56.30;21.20;;;;;;;-5.83;100.00;102547.09;5049910;28;20040;-41
2022/12/18 07:01:01;;;;;;;62.67;22.65;;;;;;;-5.80;100.00;102523.44;5032318;28;20033;-41
2022/12/18 07:03:27;;;;;;;66.40;23.13;;;;;;;-5.85;100.00;102527.91;5049871;28;20464;-40
2022/12/18 07:05:52;;;;;;;61.72;22.02;;;;;;;-5.92;100.00;102523.69;5049857;28;20035;-40
2022/12/18 07:08:17;;;;;;;64.15;22.50;;;;;;;-5.89;100.00;102532.38;5048927;28;20032;-41
2022/12/18 07:10:43;;;;;;;66.97;22.42;;;;;;;-5.85;100.00;102520.03;5050651;28;20443;-41
2022/12/18 07:13:09;;;;;;;64.80;23.60;;;;;;;-5.96;100.00;102505.44;5050941;28;20029;-38
2022/12/18 07:15:34;;;;;;;57.78;21.15;;;;;;;-5.96;100.00;102487.09;5050074;28;20029;-39
2022/12/18 07:17:59;;;;;;;62.88;21.30;;;;;;;-5.90;100.00;102472.94;5048881;28;20025;-39
2022/12/18 07:20:25;;;;;;;66.95;21.67;;;;;;;-5.93;100.00;102474.81;5051804;28;20029;-38
2022/12/18 07:22:50;;;;;;;55.35;20.75;;;;;;;-5.91;100.00;102470.38;5050940;28;20033;-39
2022/12/18 07:25:15;;;;;;;62.72;20.45;;;;;;;-5.89;100.00;102463.34;5050932;28;20025;-39
2022/12/18 07:27:40;;;;;;;52.17;19.88;;;;;;;-5.87;100.00;102462.41;5052124;28;20049;-40
2022/12/18 07:30:06;;;;;;;56.67;20.85;;;;;;;-5.79;100.00;102464.84;5053735;28;20032;-40
2022/12/18 07:32:32;;;;;;;54.67;19.95;;;;;;;-5.84;100.00;102467.59;5055775;28;20440;-41
2022/12/18 07:34:57;;;;;;;48.88;18.30;;;;;;;-5.85;100.00;102463.22;5055891;28;20088;-38
2022/12/18 07:37:22;;;;;;;55.65;20.65;;;;;;;-5.81;100.00;102470.13;5055409;28;20150;-40
2022/12/18 07:39:48;;;;;;;48.30;18.88;;;;;;;-5.92;100.00;102468.63;5055223;28;20036;-39
2022/12/18 07:42:31;;;;;;;53.38;19.13;;;;;;;-5.92;100.00;102463.41;5055134;28;20021;-39
2022/12/18 07:44:57;;;;;;;51.78;18.27;;;;;;;-5.94;100.00;102475.75;5054909;28;20041;-39
2022/12/18 07:47:23;;;;;;;51.35;18.98;;;;;;;-6.00;100.00;102472.34;5054574;28;20103;-42
2022/12/18 07:49:48;;;;;;;51.83;18.75;;;;;;;-6.06;100.00;102474.25;5055143;28;20449;-41
2022/12/18 07:52:14;;;;;;;44.13;17.45;;;;;;;-6.05;100.00;102468.97;5053359;28;20383;-40
2022/12/18 07:54:40;;;;;;;47.80;18.67;;;;;;;-6.04;100.00;102464.59;5054649;28;20017;-40
2022/12/18 07:57:06;;;;;;;53.15;18.52;;;;;;;-6.05;100.00;102448.00;5054415;28;20033;-41
2022/12/18 07:59:31;;;;;;;47.08;17.13;;;;;;;-5.90;100.00;102456.38;5053987;28;20021;-41
2022/12/18 08:01:56;;;;;;;44.65;17.60;;;;;;;-5.94;100.00;102460.88;5053711;28;20099;-41
2022/12/18 08:04:22;;;;;;;38.65;16.60;;;;;;;-5.86;100.00;102463.28;5054162;28;20040;-41
2022/12/18 08:06:47;;;;;;;40.53;16.67;;;;;;;-5.78;100.00;102458.69;5052616;28;20502;-40
2022/12/18 08:09:12;;;;;;;46.13;17.42;;;;;;;-5.74;100.00;102453.34;5053478;28;20039;-40
2022/12/18 08:11:38;;;;;;;54.03;17.63;;;;;;;-5.70;100.00;102453.28;5053671;28;20025;-40
2022/12/18 08:14:03;;;;;;;42.53;16.10;;;;;;;-5.65;100.00;102460.13;5053368;28;20476;-42
2022/12/18 08:16:30;;;;;;;46.00;16.02;;;;;;;-5.61;100.00;102459.16;5053159;28;20036;-40
2022/12/18 08:18:55;;;;;;;42.63;16.10;;;;;;;-5.58;100.00;102456.47;5053691;28;20119;-40
2022/12/18 08:21:24;;;;;;;43.10;15.82;;;;;;;-5.54;100.00;102458.09;5053420;28;20112;-39
2022/12/18 08:23:51;;;;;;;40.33;15.77;;;;;;;-5.39;100.00;102442.88;5052691;28;20059;-40
2022/12/18 08:26:17;;;;;;;33.28;14.70;;;;;;;-5.16;100.00;102451.00;5052695;28;20025;-41
2022/12/18 08:28:42;;;;;;;36.95;15.27;;;;;;;-5.14;100.00;102443.91;5052562;28;20057;-40
2022/12/18 08:31:08;;;;;;;41.03;16.08;;;;;;;-5.27;100.00;102447.78;5053181;28;20419;-40
2022/12/18 08:33:34;;;;;;;43.25;15.43;;;;;;;-5.28;100.00;102459.19;5053692;28;20146;-41
2022/12/18 08:36:01;;;;;;;38.55;15.20;;;;;;;-5.24;100.00;102465.22;5053608;28;20035;-41
2022/12/18 08:38:26;;;;;;;37.03;15.30;;;;;;;-5.21;100.00;102463.38;5053387;28;20037;-40
2022/12/18 08:41:09;;;;;;;40.75;15.23;;;;;;;-5.14;100.00;102469.31;5052756;28;20021;-41
2022/12/18 08:46:19;;;;;;;37.17;14.95;;;;;;;-4.94;100.00;102502.91;5052979;28;20375;-38
2022/12/18 08:48:45;;;;;;;38.88;15.10;;;;;;;-4.80;100.00;102506.03;5050776;28;20029;-41
2022/12/18 08:51:10;;;;;;;39.08;14.50;;;;;;;-4.83;100.00;102500.84;5052612;28;20032;-40
2022/12/18 08:53:36;;;;;;;37.30;14.77;;;;;;;-4.88;100.00;102498.34;5052651;28;20055;-40
2022/12/18 08:56:02;;;;;;;33.70;15.18;;;;;;;-5.01;100.00;102493.47;5052572;28;20416;-40
2022/12/18 08:58:28;;;;;;;34.67;14.25;;;;;;;-4.97;100.00;102488.13;5052589;28;20029;-39
2022/12/18 09:00:54;;;;;;;33.60;14.93;;;;;;;-4.88;100.00;102489.63;5052648;28;20032;-39
2022/12/18 09:03:22;;;;;;;35.10;14.45;;;;;;;-4.93;100.00;102481.00;5052365;28;20033;-40
2022/12/18 09:05:47;;;;;;;33.13;13.73;;;;;;;-4.99;100.00;102483.81;5052447;28;20476;-40
2022/12/18 09:08:13;;;;;;;34.22;14.52;;;;;;;-4.83;100.00;102474.59;5052850;28;20036;-40
2022/12/18 09:10:47;;;;;;;34.00;15.02;;;;;;;-4.70;100.00;102461.97;5052756;28;20036;-40
2022/12/18 09:13:12;;;;;;;39.08;15.38;;;;;;;-4.71;100.00;102453.25;5052588;28;20025;-40
2022/12/18 09:15:45;;;;;;;34.33;14.23;;;;;;;-4.68;100.00;102442.66;5051999;28;20381;-40
2022/12/18 09:18:11;;;;;;;33.67;13.75;;;;;;;-4.78;100.00;102445.59;5052724;28;20037;-39
2022/12/18 09:20:37;;;;;;;34.45;14.98;;;;;;;-4.65;100.00;102442.53;5051945;28;20032;-40
2022/12/18 09:23:03;;;;;;;30.98;14.13;;;;;;;-4.69;100.00;102440.91;5052998;28;20033;-40
2022/12/18 09:25:32;;;;;;;34.08;14.88;;;;;;;-4.61;100.00;102442.47;5052424;28;20017;-40
2022/12/18 09:28:19;;;;;;;30.65;13.18;;;;;;;-4.55;100.00;102427.38;5051585;28;20186;-40
2022/12/18 09:30:48;;;;;;;33.10;13.73;;;;;;;-4.62;100.00;102420.59;5051718;28;20093;-40
2022/12/18 09:33:15;;;;;;;25.50;12.95;;;;;;;-4.71;100.00;102419.09;5051441;28;20480;-40
2022/12/18 09:35:41;;;;;;;31.00;12.68;;;;;;;-4.62;100.00;102444.22;5051107;28;20029;-40
2022/12/18 09:38:08;;;;;;;33.88;13.88;;;;;;;-4.78;100.00;102435.94;5051315;28;20107;-38
2022/12/18 09:40:36;;;;;;;33.90;13.43;;;;;;;-4.76;100.00;102435.91;5049904;28;20017;-40
2022/12/18 09:43:04;;;;;;;33.67;14.20;;;;;;;-4.69;100.00;102440.91;5050643;28;20029;-41
2022/12/18 09:45:39;;;;;;;29.63;13.88;;;;;;;-4.59;100.00;102448.53;5051102;28;20029;-40
2022/12/18 09:48:05;;;;;;;33.95;14.68;;;;;;;-4.57;100.00;102462.50;5049644;28;20143;-40
2022/12/18 09:50:35;;;;;;;33.33;13.65;;;;;;;-4.54;100.00;102454.50;5050782;28;20021;-40
2022/12/18 09:53:13;;;;;;;29.40;13.60;;;;;;;-4.57;100.00;102449.34;5049603;28;20017;-40
2022/12/18 09:55:43;;;;;;;31.80;14.43;;;;;;;-4.60;100.00;102445.06;5049927;28;20025;-40
2022/12/18 09:58:28;;;;;;;31.50;13.68;;;;;;;-4.54;100.00;102444.84;5051059;28;20525;-41
2022/12/18 10:00:54;;;;;;;28.58;13.95;;;;;;;-4.61;100.00;102437.19;5049640;28;20029;-41
2022/12/18 10:03:20;;;;;;;30.95;13.98;;;;;;;-4.52;100.00;102435.16;5050738;28;20052;-40
2022/12/18 10:06:27;;;;;;;28.77;13.82;;;;;;;-4.46;100.00;102426.25;5049184;28;20025;-41
2022/12/18 10:09:01;;;;;;;28.75;13.50;;;;;;;-4.34;100.00;102420.63;5050266;28;20021;-40
2022/12/18 10:11:39;;;;;;;31.98;12.85;;;;;;;-4.45;100.00;102413.06;5048816;28;20033;-38
2022/12/18 10:14:43;;;;;;;28.52;13.70;;;;;;;-4.32;100.00;102417.94;5050503;28;20155;-40
2022/12/18 10:17:29;;;;;;;27.90;13.18;;;;;;;-4.33;100.00;102408.34;5048936;28;20404;-41
2022/12/18 10:20:15;;;;;;;27.75;12.70;;;;;;;-4.23;100.00;102400.09;5049987;28;20159;-40
2022/12/18 10:22:46;;;;;;;26.20;13.18;;;;;;;-4.14;100.00;102404.22;5049592;28;20040;-40
2022/12/18 10:25:29;;;;;;;32.15;13.07;;;;;;;-4.00;100.00;102403.78;5049146;28;20479;-40
2022/12/18 10:28:00;;;;;;;35.08;13.55;;;;;;;-4.16;100.00;102399.91;5048758;28;20166;-39
2022/12/18 10:30:26;;;;;;;33.97;13.80;;;;;;;-4.10;100.00;102387.44;5049056;28;20021;-40
2022/12/18 10:32:51;;;;;;;34.92;14.80;;;;;;;-3.98;100.00;102392.31;5050010;28;20111;-40
2022/12/18 10:35:25;;;;;;;29.23;13.30;;;;;;;-3.85;100.00;102391.88;5050138;28;20116;-40
2022/12/18 10:38:21;;;;;;;30.02;13.40;;;;;;;-3.85;100.00;102384.84;5050253;28;20037;-39
2022/12/18 10:40:51;;;;;;;31.00;13.43;;;;;;;-3.91;100.00;102392.94;5049629;28;20477;-40
2022/12/18 10:43:21;;;;;;;34.10;13.57;;;;;;;-3.81;100.00;102391.72;5050513;28;20039;-40
2022/12/18 10:46:22;;;;;;;29.02;13.45;;;;;;;-3.81;100.00;102394.38;5049965;28;20025;-40
2022/12/18 10:48:48;;;;;;;29.70;12.43;;;;;;;-3.98;100.00;102392.31;5050060;28;20041;-41
2022/12/18 10:51:39;;;;;;;26.95;13.07;;;;;;;-3.93;100.00;102384.25;5049795;28;20070;-41
2022/12/18 10:54:16;;;;;;;25.63;13.15;;;;;;;-3.72;100.00;102387.06;5047327;28;20049;-41
2022/12/18 10:56:42;;;;;;;30.27;13.07;;;;;;;-3.60;100.00;102386.66;5049004;28;20419;-41
2022/12/18 10:59:10;;;;;;;30.10;13.80;;;;;;;-3.78;100.00;102378.47;5048804;28;20040;-40
2022/12/18 11:01:51;;;;;;;28.02;14.05;;;;;;;-3.79;100.00;102376.78;5048239;28;20025;-41
2022/12/18 11:04:22;;;;;;;27.70;12.77;;;;;;;-3.71;100.00;102373.88;5050148;28;20029;-41
2022/12/18 11:06:59;;;;;;;28.80;13.30;;;;;;;-3.58;100.00;102374.28;5050082;28;20033;-41
2022/12/18 11:09:31;;;;;;;29.17;13.43;;;;;;;-3.53;100.00;102367.97;5048914;28;20021;-40
2022/12/18 11:11:59;;;;;;;34.20;13.43;;;;;;;-3.54;100.00;102357.50;5050410;28;20029;-40
2022/12/18 11:14:32;;;;;;;26.00;12.75;;;;;;;-3.46;100.00;102363.34;5048879;28;20048;-40